createdAt,value
2022-11-04T00:00:42.999Z,99326.03
2022-11-04T00:03:09.942Z,99326.06
2022-11-04T00:05:36.613Z,99331.50
2022-11-04T00:08:04.885Z,99330.97
2022-11-04T00:10:31.254Z,99324.53
2022-11-04T00:12:57.637Z,99311.41
2022-11-04T00:15:24.268Z,99306.78
2022-11-04T00:17:50.647Z,99313.25
2022-11-04T00:20:17.325Z,99320.59
2022-11-04T00:22:48.409Z,99325.19
2022-11-04T00:25:16.470Z,99337.88
2022-11-04T00:27:42.849Z,99329.06
2022-11-04T00:30:10.902Z,99333.66
2022-11-04T00:32:37.344Z,99332.75
2022-11-04T00:35:04.685Z,99333.84
2022-11-04T00:37:31.129Z,99336.44
2022-11-04T00:39:57.545Z,99333.31
2022-11-04T00:42:25.287Z,99334.00
2022-11-04T00:44:51.885Z,99331.31
2022-11-04T00:47:18.266Z,99341.50
2022-11-04T00:49:44.667Z,99350.94
2022-11-04T00:52:11.101Z,99340.94
2022-11-04T00:54:37.514Z,99355.94
2022-11-04T00:57:03.930Z,99356.44
2022-11-04T00:59:31.673Z,99351.81
2022-11-04T01:01:58.205Z,99351.81
2022-11-04T01:04:24.720Z,99357.31
2022-11-04T01:06:51.503Z,99366.22
2022-11-04T01:09:18.220Z,99370.63
2022-11-04T01:11:44.646Z,99369.66
2022-11-04T01:14:11.343Z,99365.28
2022-11-04T01:16:39.303Z,99367.97
2022-11-04T01:19:06.362Z,99353.16
2022-11-04T01:21:32.767Z,99365.50
2022-11-04T01:23:59.727Z,99361.16
2022-11-04T01:26:27.234Z,99363.28
2022-11-04T01:28:55.314Z,99368.81
2022-11-04T01:31:23.189Z,99368.72
2022-11-04T01:33:52.648Z,99371.88
2022-11-04T01:36:20.673Z,99371.09
2022-11-04T01:38:47.942Z,99371.94
2022-11-04T01:41:18.815Z,99359.16
2022-11-04T01:43:49.519Z,99361.88
2022-11-04T01:46:25.786Z,99358.81
2022-11-04T01:48:56.372Z,99370.19
2022-11-04T01:51:23.262Z,99370.22
2022-11-04T01:53:52.163Z,99390.34
2022-11-04T01:56:18.806Z,99379.69
2022-11-04T01:58:49.247Z,99387.13
2022-11-04T02:01:16.091Z,99383.41
2022-11-04T02:03:48.641Z,99387.25
2022-11-04T02:06:19.087Z,99369.94
2022-11-04T02:08:46.294Z,99373.53
2022-11-04T02:11:12.734Z,99371.13
2022-11-04T02:13:39.226Z,99373.78
2022-11-04T02:16:15.487Z,99357.22
2022-11-04T02:18:54.438Z,99373.66
2022-11-04T02:21:55.534Z,99379.69
2022-11-04T02:24:42.671Z,99374.56
2022-11-04T02:27:30.906Z,99371.56
2022-11-04T02:30:07.920Z,99372.13
2022-11-04T02:32:52.880Z,99369.47
2022-11-04T02:35:27.350Z,99378.38
2022-11-04T02:38:02.994Z,99371.78
2022-11-04T02:40:38.919Z,99375.50
2022-11-04T02:43:13.627Z,99375.25
2022-11-04T02:45:45.030Z,99392.03
2022-11-04T02:48:20.221Z,99369.28
2022-11-04T02:50:51.486Z,99378.19
2022-11-04T02:53:23.362Z,99380.38
2022-11-04T02:55:54.030Z,99369.97
2022-11-04T02:58:23.491Z,99371.41
2022-11-04T03:00:53.726Z,99372.13
2022-11-04T03:03:24.729Z,99378.88
2022-11-04T03:05:54.505Z,99378.00
2022-11-04T03:08:26.269Z,99385.59
2022-11-04T03:10:56.742Z,99384.47
2022-11-04T03:13:29.303Z,99392.34
2022-11-04T03:16:01.782Z,99384.69
2022-11-04T03:18:36.279Z,99396.97
2022-11-04T03:21:05.957Z,99408.31
2022-11-04T03:23:32.719Z,99408.81
2022-11-04T03:26:08.983Z,99422.59
2022-11-04T03:28:43.003Z,99433.72
2022-11-04T03:31:19.063Z,99444.41
2022-11-04T03:33:48.423Z,99451.13
2022-11-04T03:36:15.279Z,99470.00
2022-11-04T03:38:42.205Z,99475.50
2022-11-04T03:41:14.966Z,99469.47
2022-11-04T03:43:41.830Z,99479.66
2022-11-04T03:46:08.495Z,99484.25
2022-11-04T03:48:36.472Z,99491.72
2022-11-04T03:51:03.164Z,99498.97
2022-11-04T03:53:30.890Z,99500.69
2022-11-04T03:56:12.576Z,99504.31
2022-11-04T03:58:48.202Z,99509.13
2022-11-04T04:01:25.699Z,99516.78
2022-11-04T04:04:00.004Z,99516.78
2022-11-04T04:06:31.025Z,99512.66
2022-11-04T04:09:05.721Z,99508.31
2022-11-04T04:11:39.034Z,99513.47
2022-11-04T04:14:12.904Z,99513.81
2022-11-04T04:16:43.792Z,99519.41
2022-11-04T04:19:14.130Z,99526.03
2022-11-04T04:21:45.436Z,99524.91
2022-11-04T04:24:15.357Z,99525.13
2022-11-04T04:26:42.525Z,99527.34
2022-11-04T04:29:10.657Z,99535.16
2022-11-04T04:31:39.443Z,99539.31
2022-11-04T04:34:06.254Z,99538.66
2022-11-04T04:36:41.949Z,99547.06
2022-11-04T04:39:10.102Z,99556.63
2022-11-04T04:41:36.615Z,99555.06
2022-11-04T04:44:04.662Z,99563.03
2022-11-04T04:46:32.010Z,99561.03
2022-11-04T04:49:04.274Z,99557.00
2022-11-04T04:51:31.174Z,99567.88
2022-11-04T04:53:59.115Z,99554.84
2022-11-04T04:56:25.696Z,99555.91
2022-11-04T04:58:52.097Z,99562.25
2022-11-04T05:01:18.639Z,99560.38
2022-11-04T05:03:45.503Z,99562.75
2022-11-04T05:06:11.907Z,99570.88
2022-11-04T05:08:38.346Z,99567.16
2022-11-04T05:11:06.442Z,99566.22
2022-11-04T05:13:32.899Z,99571.78
2022-11-04T05:16:04.534Z,99574.28
2022-11-04T05:18:31.019Z,99576.91
2022-11-04T05:20:57.482Z,99577.16
2022-11-04T05:23:23.888Z,99587.59
2022-11-04T05:25:50.296Z,99592.25
2022-11-04T05:28:18.029Z,99600.38
2022-11-04T05:30:44.409Z,99597.03
2022-11-04T05:33:11.168Z,99603.53
2022-11-04T05:35:37.876Z,99607.09
2022-11-04T05:38:04.290Z,99616.59
2022-11-04T05:40:30.772Z,99615.94
2022-11-04T05:42:58.236Z,99608.28
2022-11-04T05:45:26.022Z,99598.50
2022-11-04T05:47:58.026Z,99596.34
2022-11-04T05:50:24.457Z,99611.47
2022-11-04T05:52:50.875Z,99602.72
2022-11-04T05:55:17.351Z,99620.69
2022-11-04T05:57:43.726Z,99626.91
2022-11-04T06:00:11.709Z,99621.13
2022-11-04T06:02:39.711Z,99617.28
2022-11-04T06:05:07.679Z,99620.16
2022-11-04T06:07:34.141Z,99637.22
2022-11-04T06:10:00.603Z,99647.75
2022-11-04T06:12:27.023Z,99633.84
2022-11-04T06:14:53.480Z,99647.75
2022-11-04T06:17:21.974Z,99652.34
2022-11-04T06:19:50.059Z,99640.91
2022-11-04T06:22:17.845Z,99646.56
2022-11-04T06:24:44.701Z,99665.47
2022-11-04T06:27:11.766Z,99676.59
2022-11-04T06:29:38.745Z,99681.75
2022-11-04T06:32:05.379Z,99693.41
2022-11-04T06:34:31.790Z,99693.44
2022-11-04T06:36:59.519Z,99711.34
2022-11-04T06:39:26.053Z,99703.97
2022-11-04T06:41:53.042Z,99717.56
2022-11-04T06:44:21.837Z,99719.47
2022-11-04T06:46:48.278Z,99728.94
2022-11-04T06:49:16.551Z,99731.97
2022-11-04T06:51:43.165Z,99749.19
2022-11-04T06:54:11.253Z,99746.56
2022-11-04T06:56:37.899Z,99726.94
2022-11-04T06:59:04.838Z,99733.19
2022-11-04T07:01:34.977Z,99721.47
2022-11-04T07:04:02.439Z,99716.63
2022-11-04T07:06:29.380Z,99712.34
2022-11-04T07:08:57.886Z,99717.88
2022-11-04T07:11:26.645Z,99726.69
2022-11-04T07:13:53.184Z,99730.31
2022-11-04T07:16:19.608Z,99733.78
2022-11-04T07:18:46.455Z,99731.09
2022-11-04T07:21:13.009Z,99728.16
2022-11-04T07:23:39.441Z,99733.19
2022-11-04T07:26:07.409Z,99730.47
2022-11-04T07:28:35.314Z,99735.09
2022-11-04T07:31:03.222Z,99743.13
2022-11-04T07:33:29.882Z,99732.75
2022-11-04T07:35:57.124Z,99737.31
2022-11-04T07:38:24.677Z,99741.34
2022-11-04T07:40:51.065Z,99741.75
2022-11-04T07:43:17.521Z,99748.94
2022-11-04T07:45:45.318Z,99757.91
2022-11-04T07:48:12.109Z,99759.25
2022-11-04T07:50:39.411Z,99754.91
2022-11-04T07:53:06.294Z,99762.47
2022-11-04T07:55:32.981Z,99768.88
2022-11-04T07:57:59.397Z,99761.34
2022-11-04T08:00:26.143Z,99765.59
2022-11-04T08:02:54.303Z,99771.06
2022-11-04T08:05:20.746Z,99766.59
2022-11-04T08:07:47.181Z,99772.00
2022-11-04T08:10:13.576Z,99773.50
2022-11-04T08:12:39.975Z,99773.34
2022-11-04T08:15:07.878Z,99781.09
2022-11-04T08:17:34.273Z,99794.28
2022-11-04T08:20:02.020Z,99795.22
2022-11-04T08:22:32.783Z,99804.19
2022-11-04T08:24:59.588Z,99806.75
2022-11-04T08:27:26.129Z,99811.16
2022-11-04T08:29:52.547Z,99807.63
2022-11-04T08:32:19.017Z,99808.03
2022-11-04T08:34:45.454Z,99808.69
2022-11-04T08:37:14.796Z,99806.44
2022-11-04T08:39:41.448Z,99814.78
2022-11-04T08:42:08.394Z,99811.00
2022-11-04T08:44:35.078Z,99813.94
2022-11-04T08:47:03.856Z,99819.31
2022-11-04T08:49:30.546Z,99814.00
2022-11-04T08:51:57.061Z,99813.41
2022-11-04T08:54:25.244Z,99818.56
2022-11-04T08:56:51.837Z,99816.38
2022-11-04T08:59:18.267Z,99814.19
2022-11-04T09:01:45.414Z,99806.50
2022-11-04T09:04:12.680Z,99830.38
2022-11-04T09:06:41.957Z,99817.41
2022-11-04T09:09:11.675Z,99824.63
2022-11-04T09:11:41.513Z,99828.22
2022-11-04T09:14:08.363Z,99831.84
2022-11-04T09:16:36.573Z,99836.94
2022-11-04T09:19:03.487Z,99834.94
2022-11-04T09:21:30.056Z,99834.50
2022-11-04T09:23:56.572Z,99836.25
2022-11-04T09:26:23.928Z,99837.19
2022-11-04T09:28:54.819Z,99845.34
2022-11-04T09:31:21.412Z,99843.13
2022-11-04T09:33:47.906Z,99844.53
2022-11-04T09:36:14.437Z,99833.25
2022-11-04T09:38:42.122Z,99837.97
2022-11-04T09:41:19.702Z,99829.91
2022-11-04T09:43:52.589Z,99840.59
2022-11-04T09:46:21.041Z,99843.22
2022-11-04T09:48:50.481Z,99836.25
2022-11-04T09:51:39.837Z,99835.44
2022-11-04T09:54:12.306Z,99839.13
2022-11-04T09:56:43.383Z,99845.16
2022-11-04T09:59:15.106Z,99833.94
2022-11-04T10:01:51.216Z,99826.84
2022-11-04T10:04:25.234Z,99817.09
2022-11-04T10:07:07.959Z,99816.97
2022-11-04T10:09:48.565Z,99813.50
2022-11-04T10:12:27.577Z,99816.19
2022-11-04T10:15:12.909Z,99824.88
2022-11-04T10:17:57.813Z,99825.22
2022-11-04T10:20:44.845Z,99823.28
2022-11-04T10:23:21.811Z,99819.66
2022-11-04T10:25:51.403Z,99828.59
2022-11-04T10:28:20.153Z,99828.03
2022-11-04T10:30:49.605Z,99840.34
2022-11-04T10:33:26.250Z,99850.94
2022-11-04T10:35:56.721Z,99857.44
2022-11-04T10:38:32.046Z,99867.63
2022-11-04T10:41:04.501Z,99878.72
2022-11-04T10:43:37.422Z,99871.06
2022-11-04T10:46:15.244Z,99873.97
2022-11-04T10:48:49.453Z,99874.19
2022-11-04T10:51:17.069Z,99877.06
2022-11-04T10:53:43.472Z,99882.75
2022-11-04T10:56:17.942Z,99881.75
2022-11-04T10:58:46.355Z,99880.47
2022-11-04T11:01:25.160Z,99886.66
2022-11-04T11:03:53.570Z,99893.28
2022-11-04T11:06:25.330Z,99895.34
2022-11-04T11:08:53.754Z,99889.13
2022-11-04T11:11:37.489Z,99888.00
2022-11-04T11:14:03.943Z,99884.59
2022-11-04T11:16:30.365Z,99875.03
2022-11-04T11:19:16.163Z,99876.00
2022-11-04T11:21:43.596Z,99875.16
2022-11-04T11:24:14.489Z,99860.72
2022-11-04T11:26:41.321Z,99867.41
2022-11-04T11:29:11.334Z,99864.75
2022-11-04T11:31:40.138Z,99874.09
2022-11-04T11:34:15.166Z,99867.59
2022-11-04T11:36:42.048Z,99873.75
2022-11-04T11:39:16.113Z,99878.13
2022-11-04T11:41:53.966Z,99878.88
2022-11-04T11:44:26.425Z,99882.34
2022-11-04T11:46:55.094Z,99882.28
2022-11-04T11:49:26.580Z,99889.00
2022-11-04T11:51:52.996Z,99894.47
2022-11-04T11:54:26.521Z,99896.66
2022-11-04T12:02:41.427Z,99887.28
2022-11-04T12:10:59.510Z,99889.81
2022-11-04T12:13:29.522Z,99898.19
2022-11-04T12:16:26.145Z,99894.47
2022-11-04T12:19:04.122Z,99895.28
2022-11-04T12:21:35.947Z,99884.44
2022-11-04T12:24:19.133Z,99887.28
2022-11-04T12:26:56.579Z,99891.81
2022-11-04T12:29:39.271Z,99888.28
2022-11-04T12:32:15.695Z,99891.19
2022-11-04T12:34:56.462Z,99888.63
2022-11-04T12:37:32.909Z,99886.53
2022-11-04T12:40:12.616Z,99893.69
2022-11-04T12:42:50.755Z,99888.22
2022-11-04T12:45:30.215Z,99892.50
2022-11-04T12:48:01.792Z,99890.03
2022-11-04T12:50:46.547Z,99894.81
2022-11-04T12:53:37.255Z,99907.19
2022-11-04T12:56:09.066Z,99908.50
2022-11-04T12:58:47.925Z,99911.91
2022-11-04T13:01:19.957Z,99904.00
2022-11-04T13:03:53.389Z,99914.88
2022-11-04T13:06:25.932Z,99913.28
2022-11-04T13:08:58.909Z,99914.25
2022-11-04T13:11:30.980Z,99923.31
2022-11-04T13:14:03.778Z,99931.47
2022-11-04T13:16:33.985Z,99935.88
2022-11-04T13:19:01.602Z,99945.41
2022-11-04T13:21:33.691Z,99946.34
2022-11-04T13:24:05.792Z,99939.88
2022-11-04T13:26:32.714Z,99944.66
2022-11-04T13:29:08.914Z,99945.88
2022-11-04T13:31:46.394Z,99956.94
2022-11-04T13:34:25.555Z,99954.72
2022-11-04T13:37:00.887Z,99957.25
2022-11-04T13:39:34.615Z,99964.31
2022-11-04T13:42:23.129Z,99975.91
2022-11-04T13:44:51.841Z,99968.25
2022-11-04T13:47:22.557Z,99965.75
2022-11-04T13:49:51.013Z,99970.09
2022-11-04T13:52:18.461Z,99967.59
2022-11-04T13:54:53.125Z,99967.19
2022-11-04T13:57:21.557Z,99976.56
2022-11-04T14:00:08.128Z,99971.00
2022-11-04T14:02:40.384Z,99977.28
2022-11-04T14:05:51.321Z,99975.28
2022-11-04T14:08:17.962Z,99975.66
2022-11-04T14:10:59.349Z,99977.38
2022-11-04T14:14:04.053Z,99988.00
2022-11-04T14:16:39.166Z,99985.44
2022-11-04T14:19:53.740Z,99989.06
2022-11-04T14:22:20.169Z,99991.25
2022-11-04T14:24:54.901Z,99997.41
2022-11-04T14:27:27.781Z,99998.47
2022-11-04T14:29:54.402Z,100008.78
2022-11-04T14:32:25.679Z,100005.78
2022-11-04T14:34:59.866Z,100010.25
2022-11-04T14:37:30.409Z,100018.22
2022-11-04T14:39:58.595Z,100019.16
2022-11-04T14:42:49.466Z,100023.78
2022-11-04T14:45:19.960Z,100021.28
2022-11-04T14:47:49.739Z,100022.31
2022-11-04T14:50:19.526Z,100016.16
2022-11-04T14:52:50.621Z,100023.09
2022-11-04T14:55:19.293Z,100032.50
2022-11-04T14:57:48.305Z,100031.28
2022-11-04T15:00:22.965Z,100026.84
2022-11-04T15:02:59.971Z,100029.13
2022-11-04T15:05:28.879Z,100037.69
2022-11-04T15:07:55.380Z,100043.09
2022-11-04T15:10:24.371Z,100044.47
2022-11-04T15:12:53.733Z,100062.19
2022-11-04T15:15:35.953Z,100057.56
2022-11-04T15:18:06.473Z,100058.38
2022-11-04T15:20:35.773Z,100058.19
2022-11-04T15:23:06.705Z,100056.16
2022-11-04T15:25:33.537Z,100052.00
2022-11-04T15:28:01.308Z,100051.06
2022-11-04T15:30:29.899Z,100064.53
2022-11-04T15:32:58.630Z,100067.47
2022-11-04T15:35:26.814Z,100063.91
2022-11-04T15:37:54.957Z,100060.66
2022-11-04T15:40:22.326Z,100061.84
2022-11-04T15:42:50.395Z,100069.94
2022-11-04T15:45:27.582Z,100080.38
2022-11-04T15:48:26.628Z,100081.16
2022-11-04T15:51:04.281Z,100089.81
2022-11-04T15:53:32.021Z,100097.88
2022-11-04T15:55:59.827Z,100097.25
2022-11-04T15:58:26.637Z,100100.59
2022-11-04T16:00:55.775Z,100093.16
2022-11-04T16:03:22.815Z,100103.41
2022-11-04T16:06:05.453Z,100106.44
2022-11-04T16:08:32.782Z,100104.22
2022-11-04T16:11:11.835Z,100104.19
2022-11-04T16:13:38.764Z,100123.34
2022-11-04T16:16:18.845Z,100124.44
2022-11-04T16:18:52.081Z,100128.81
2022-11-04T16:21:25.203Z,100131.72
2022-11-04T16:23:56.559Z,100136.41
2022-11-04T16:26:28.520Z,100136.34
2022-11-04T16:28:56.596Z,100141.31
2022-11-04T16:31:32.885Z,100142.81
2022-11-04T16:33:59.425Z,100146.41
2022-11-04T16:36:30.913Z,100140.91
2022-11-04T16:39:02.572Z,100148.59
2022-11-04T16:41:32.154Z,100144.91
2022-11-04T16:43:58.789Z,100151.69
2022-11-04T16:46:25.562Z,100154.91
2022-11-04T16:48:53.291Z,100151.44
2022-11-04T16:51:21.482Z,100150.66
2022-11-04T16:53:49.645Z,100150.50
2022-11-04T16:56:17.549Z,100152.88
2022-11-04T16:58:44.068Z,100148.84
2022-11-04T17:01:11.772Z,100151.00
2022-11-04T17:03:38.382Z,100142.97
2022-11-04T17:06:06.792Z,100153.94
2022-11-04T17:08:33.216Z,100158.13
2022-11-04T17:10:59.669Z,100163.44
2022-11-04T17:13:26.111Z,100161.78
2022-11-04T17:15:52.553Z,100167.22
2022-11-04T17:18:19.013Z,100173.47
2022-11-04T17:20:48.979Z,100163.44
2022-11-04T17:23:16.872Z,100167.91
2022-11-04T17:25:43.793Z,100177.50
2022-11-04T17:28:10.377Z,100170.50
2022-11-04T17:30:37.211Z,100174.59
2022-11-04T17:33:03.698Z,100181.28
2022-11-04T17:35:33.876Z,100187.53
2022-11-04T17:38:00.339Z,100197.38
2022-11-04T17:40:28.133Z,100201.94
2022-11-04T17:42:54.542Z,100200.47
2022-11-04T17:45:21.491Z,100205.38
2022-11-04T17:47:48.023Z,100210.13
2022-11-04T17:50:14.495Z,100221.97
2022-11-04T17:52:40.919Z,100218.84
2022-11-04T17:55:11.140Z,100220.16
2022-11-04T17:57:43.324Z,100219.50
2022-11-04T18:00:11.165Z,100221.28
2022-11-04T18:02:37.839Z,100226.53
2022-11-04T18:05:05.086Z,100228.66
2022-11-04T18:07:31.477Z,100225.56
2022-11-04T18:09:57.972Z,100231.47
2022-11-04T18:12:24.402Z,100228.03
2022-11-04T18:14:52.220Z,100233.09
2022-11-04T18:17:18.625Z,100229.97
2022-11-04T18:19:45.050Z,100241.63
2022-11-04T18:22:11.481Z,100244.22
2022-11-04T18:24:38.061Z,100252.88
2022-11-04T18:27:04.517Z,100248.25
2022-11-04T18:29:30.943Z,100253.00
2022-11-04T18:31:58.896Z,100248.78
2022-11-04T18:34:25.467Z,100245.19
2022-11-04T18:36:51.865Z,100244.88
2022-11-04T18:39:18.895Z,100251.91
2022-11-04T18:41:45.646Z,100260.94
2022-11-04T18:44:15.491Z,100256.16
2022-11-04T18:46:41.971Z,100253.56
2022-11-04T18:49:10.026Z,100242.72
2022-11-04T18:51:36.515Z,100251.41
2022-11-04T18:54:04.027Z,100249.63
2022-11-04T18:56:30.696Z,100251.25
2022-11-04T18:58:57.097Z,100258.31
2022-11-04T19:01:26.150Z,100262.22
2022-11-04T19:03:52.936Z,100258.47
2022-11-04T19:06:23.110Z,100258.16
2022-11-04T19:08:49.494Z,100270.44
2022-11-04T19:11:19.053Z,100272.22
2022-11-04T19:13:50.421Z,100266.34
2022-11-04T19:16:20.458Z,100280.03
2022-11-04T19:18:47.071Z,100278.44
2022-11-04T19:21:13.587Z,100273.38
2022-11-04T19:23:41.370Z,100287.38
2022-11-04T19:26:09.569Z,100286.31
2022-11-04T19:28:47.689Z,100284.78
2022-11-04T19:31:16.329Z,100289.59
2022-11-04T19:33:43.149Z,100289.44
2022-11-04T19:36:12.062Z,100299.75
2022-11-04T19:38:38.591Z,100300.63
2022-11-04T19:41:10.992Z,100304.91
2022-11-04T19:43:37.386Z,100305.75
2022-11-04T19:46:04.808Z,100308.94
2022-11-04T19:48:31.486Z,100314.41
2022-11-04T19:50:57.887Z,100311.91
2022-11-04T19:53:24.475Z,100307.56
2022-11-04T19:55:52.447Z,100316.78
2022-11-04T19:58:20.800Z,100317.94
2022-11-04T20:00:47.258Z,100319.25
2022-11-04T20:03:14.493Z,100322.53
2022-11-04T20:05:42.469Z,100320.16
2022-11-04T20:08:09.667Z,100328.53
2022-11-04T20:10:38.188Z,100332.78
2022-11-04T20:13:04.886Z,100331.97
2022-11-04T20:15:32.707Z,100334.06
2022-11-04T20:17:59.807Z,100335.59
2022-11-04T20:20:26.284Z,100341.22
2022-11-04T20:22:52.715Z,100332.72
2022-11-04T20:25:19.149Z,100345.94
2022-11-04T20:27:45.533Z,100339.75
2022-11-04T20:30:12.376Z,100347.47
2022-11-04T20:32:40.400Z,100349.63
2022-11-04T20:35:07.442Z,100347.47
2022-11-04T20:37:33.919Z,100356.25
2022-11-04T20:40:00.383Z,100351.91
2022-11-04T20:42:26.922Z,100360.31
2022-11-04T20:44:53.385Z,100366.44
2022-11-04T20:47:19.790Z,100371.63
2022-11-04T20:49:47.566Z,100374.53
2022-11-04T20:52:13.999Z,100379.09
2022-11-04T20:54:40.413Z,100385.19
2022-11-04T20:57:06.807Z,100379.47
2022-11-04T20:59:33.561Z,100384.47
2022-11-04T21:02:00.137Z,100390.06
2022-11-04T21:04:29.563Z,100391.44
2022-11-04T21:07:01.086Z,100394.72
2022-11-04T21:09:27.543Z,100398.66
2022-11-04T21:11:53.970Z,100402.06
2022-11-04T21:14:20.577Z,100405.81
2022-11-04T21:16:47.413Z,100408.09
2022-11-04T21:19:13.866Z,100401.69
2022-11-04T21:21:41.812Z,100414.78
2022-11-04T21:24:11.719Z,100411.94
2022-11-04T21:26:38.186Z,100419.84
2022-11-04T21:29:07.007Z,100417.56
2022-11-04T21:31:35.685Z,100420.84
2022-11-04T21:34:02.526Z,100421.03
2022-11-04T21:36:29.210Z,100424.03
2022-11-04T21:38:56.013Z,100426.31
2022-11-04T21:41:26.663Z,100427.22
2022-11-04T21:43:54.291Z,100434.69
2022-11-04T21:46:20.797Z,100440.47
2022-11-04T21:48:47.199Z,100447.75
2022-11-04T21:51:15.390Z,100444.75
2022-11-04T21:53:42.133Z,100439.31
2022-11-04T21:56:12.246Z,100436.47
2022-11-04T21:58:40.345Z,100447.72
2022-11-04T22:01:08.072Z,100439.84
2022-11-04T22:03:34.820Z,100440.66
2022-11-04T22:06:03.326Z,100443.31
2022-11-04T22:08:30.827Z,100452.31
2022-11-04T22:11:04.545Z,100451.94
2022-11-04T22:13:30.813Z,100453.09
2022-11-04T22:15:58.653Z,100463.72
2022-11-04T22:18:25.257Z,100458.56
2022-11-04T22:20:51.781Z,100454.22
2022-11-04T22:23:18.271Z,100460.66
2022-11-04T22:25:49.771Z,100458.63
2022-11-04T22:28:16.713Z,100455.94
2022-11-04T22:30:43.537Z,100463.81
2022-11-04T22:33:11.776Z,100472.13
2022-11-04T22:35:38.673Z,100467.78
2022-11-04T22:38:05.107Z,100464.06
2022-11-04T22:40:31.579Z,100461.97
2022-11-04T22:42:58.002Z,100470.25
2022-11-04T22:45:24.645Z,100476.81
2022-11-04T22:47:51.122Z,100477.91
2022-11-04T22:50:19.074Z,100483.22
2022-11-04T22:52:45.462Z,100479.56
2022-11-04T22:55:11.915Z,100479.56
2022-11-04T22:57:38.366Z,100475.03
2022-11-04T23:00:06.405Z,100487.88
2022-11-04T23:02:36.766Z,100487.97
2022-11-04T23:05:04.295Z,100489.97
2022-11-04T23:07:32.169Z,100494.94
2022-11-04T23:09:58.747Z,100494.22
2022-11-04T23:12:25.148Z,100499.97
2022-11-04T23:14:51.562Z,100495.59
2022-11-04T23:17:19.816Z,100506.94
2022-11-04T23:19:46.246Z,100507.72
2022-11-04T23:22:12.665Z,100507.41
2022-11-04T23:24:40.698Z,100512.69
2022-11-04T23:27:07.125Z,100512.31
2022-11-04T23:29:33.567Z,100516.16
2022-11-04T23:32:00.038Z,100508.00
2022-11-04T23:34:26.626Z,100513.81
2022-11-04T23:36:53.045Z,100514.09
2022-11-04T23:39:19.717Z,100513.66
2022-11-04T23:41:47.510Z,100519.25
2022-11-04T23:44:13.909Z,100513.84
2022-11-04T23:46:43.438Z,100524.50
2022-11-04T23:49:11.004Z,100524.53
2022-11-04T23:51:37.380Z,100529.53
2022-11-04T23:54:04.654Z,100534.59
2022-11-04T23:56:31.510Z,100531.81
2022-11-04T23:58:59.267Z,100537.47
